Time;durP1;ratioP1;P1;durP2;ratioP2;P2;SDS_P1;SDS_P2;PMS_P1;PMS_P2;Temp;Humidity;BMP_temperature;BMP_pressure;BME280_temperature;BME280_humidity;BME280_pressure;Samples;Min_cycle;Max_cycle;Signal;HPM_P1;HPM_P2
2022/06/13 00:01:03;;;;;;;49.60;9.93;;;;;;;15.52;100.00;94925.63;5078128;28;20044;-67
2022/06/13 00:03:30;;;;;;;56.70;9.82;;;;;;;15.48;100.00;94928.78;5080453;28;20048;-66
2022/06/13 00:05:57;;;;;;;34.17;7.80;;;;;;;15.42;100.00;94936.91;5076582;28;20052;-66
2022/06/13 00:08:23;;;;;;;34.92;7.07;;;;;;;15.42;100.00;94935.06;5081324;28;20444;-66
2022/06/13 00:10:50;;;;;;;22.52;7.07;;;;;;;15.44;100.00;94927.72;5076677;28;20521;-66
2022/06/13 00:13:17;;;;;;;31.58;7.32;;;;;;;15.45;100.00;94929.28;5081514;28;20047;-66
2022/06/13 00:15:44;;;;;;;28.25;7.45;;;;;;;15.46;100.00;94922.97;5078690;28;20509;-67
2022/06/13 00:18:12;;;;;;;21.48;6.95;;;;;;;15.51;100.00;94921.44;5076449;28;20036;-66
2022/06/13 00:20:39;;;;;;;27.88;7.95;;;;;;;15.54;100.00;94923.53;5078151;28;20048;-66
2022/06/13 00:23:05;;;;;;;18.67;7.68;;;;;;;15.56;100.00;94924.06;5065946;28;20040;-66
2022/06/13 00:25:32;;;;;;;26.35;8.68;;;;;;;15.57;100.00;94920.38;5078341;28;20056;-66
2022/06/13 00:27:59;;;;;;;20.63;8.00;;;;;;;15.61;100.00;94921.44;5082655;28;20437;-67
2022/06/13 00:30:26;;;;;;;28.90;9.77;;;;;;;15.66;100.00;94924.88;5086370;28;20054;-66
2022/06/13 00:32:53;;;;;;;34.90;10.75;;;;;;;15.65;100.00;94928.53;5081585;28;20213;-66
2022/06/13 00:35:20;;;;;;;27.75;9.48;;;;;;;15.63;100.00;94927.25;5088361;28;20051;-67
2022/06/13 00:37:47;;;;;;;17.63;10.32;;;;;;;15.66;100.00;94934.56;5082363;28;20044;-66
2022/06/13 00:40:14;;;;;;;16.75;10.80;;;;;;;15.64;100.00;94931.44;5089015;28;20044;-66
2022/06/13 00:42:42;;;;;;;23.30;10.30;;;;;;;15.75;100.00;94938.28;5081232;28;20067;-67
2022/06/13 00:45:20;;;;;;;24.00;11.15;;;;;;;15.80;100.00;94930.44;5083616;28;20105;-66
2022/06/13 00:47:50;;;;;;;44.58;12.48;;;;;;;15.72;100.00;94933.56;5080719;28;20687;-67
2022/06/13 00:50:26;;;;;;;21.90;11.23;;;;;;;15.74;100.00;94926.22;5080432;28;20047;-66
2022/06/13 00:52:56;;;;;;;23.23;12.15;;;;;;;15.83;100.00;94934.38;5079973;28;20045;-67
2022/06/13 00:55:28;;;;;;;21.83;13.07;;;;;;;15.79;100.00;94928.06;5083233;28;20108;-66
2022/06/13 00:57:56;;;;;;;24.05;12.68;;;;;;;15.81;100.00;94920.69;5082478;28;20052;-66
2022/06/13 01:00:23;;;;;;;19.98;11.82;;;;;;;15.82;100.00;94928.31;5081289;28;20052;-66
2022/06/13 01:02:51;;;;;;;23.90;12.15;;;;;;;15.79;100.00;94928.88;5081515;28;20412;-66
2022/06/13 01:05:23;;;;;;;25.67;13.27;;;;;;;15.81;100.00;94934.66;5079385;28;20042;-66
2022/06/13 01:07:50;;;;;;;27.95;15.02;;;;;;;15.75;100.00;94916.50;5081470;28;20153;-66
2022/06/13 01:13:07;;;;;;;24.48;13.77;;;;;;;15.83;100.00;94918.63;5032107;28;20040;-66
2022/06/13 01:15:46;;;;;;;21.05;12.82;;;;;;;15.83;100.00;94919.41;5062144;28;20052;-66
2022/06/13 01:18:25;;;;;;;25.05;13.90;;;;;;;15.85;100.00;94919.94;5082584;28;20040;-66
2022/06/13 01:21:19;;;;;;;20.95;12.85;;;;;;;15.85;100.00;94927.03;5080845;28;20091;-66
2022/06/13 01:24:24;;;;;;;33.28;11.82;;;;;;;15.82;100.00;94917.81;5078702;28;20044;-67
2022/06/13 01:27:40;;;;;;;61.90;13.90;;;;;;;15.79;100.00;94931.50;5084982;28;20488;-66
2022/06/13 01:30:28;;;;;;;40.70;11.73;;;;;;;15.77;100.00;94925.72;5065433;28;20044;-66
2022/06/13 01:33:12;;;;;;;19.90;11.13;;;;;;;15.76;100.00;94923.34;5080709;28;20036;-66
2022/06/13 01:36:05;;;;;;;30.55;10.40;;;;;;;15.71;100.00;94916.22;5078421;28;20525;-67
2022/06/13 01:38:47;;;;;;;27.88;9.82;;;;;;;15.73;100.00;94908.84;5079239;28;20048;-66
2022/06/13 01:41:17;;;;;;;29.95;9.77;;;;;;;15.74;100.00;94907.84;5060102;28;20085;-66
2022/06/13 01:44:01;;;;;;;33.35;9.98;;;;;;;15.75;100.00;94917.28;5085976;28;20524;-66
2022/06/13 01:46:34;;;;;;;;;;;;;;;15.73;100.00;94918.59;5080909;28;20152;-67
2022/06/13 01:49:07;;;;;;;27.70;9.55;;;;;;;15.65;100.00;94917.25;5084329;28;19924;-66
2022/06/13 01:51:49;;;;;;;24.17;10.65;;;;;;;15.69;100.00;94923.56;5080575;28;20040;-67
2022/06/13 01:54:23;;;;;;;28.42;11.60;;;;;;;15.68;100.00;94922.78;5067911;28;20428;-66
2022/06/13 01:57:24;;;;;;;20.27;10.43;;;;;;;15.70;100.00;94924.34;5083395;28;20609;-66
2022/06/13 02:00:09;;;;;;;20.50;11.02;;;;;;;15.68;100.00;94921.97;5082733;28;20505;-66
2022/06/13 02:02:58;;;;;;;17.70;10.20;;;;;;;15.67;100.00;94925.66;5081260;28;20040;-67
2022/06/13 02:05:38;;;;;;;40.20;13.50;;;;;;;15.75;100.00;94927.78;5085492;28;20058;-66
2022/06/13 02:08:10;;;;;;;34.78;11.05;;;;;;;15.71;100.00;94926.72;5077951;28;20048;-66
2022/06/13 02:10:59;;;;;;;32.33;12.20;;;;;;;15.72;100.00;94923.06;5083578;28;20043;-66
2022/06/13 02:13:41;;;;;;;39.85;11.10;;;;;;;15.69;100.00;94918.31;5081893;28;20044;-66
2022/06/13 02:16:13;;;;;;;28.98;11.43;;;;;;;15.57;100.00;94920.38;5080733;28;20051;-66
2022/06/13 02:18:54;;;;;;;18.92;12.25;;;;;;;15.53;100.00;94919.34;5079338;28;20044;-65
2022/06/13 02:21:24;;;;;;;25.17;11.40;;;;;;;15.58;100.00;94927.22;5083264;28;20470;-66
2022/06/13 02:23:55;;;;;;;22.05;11.23;;;;;;;15.35;100.00;94897.00;5079779;28;21273;-66
2022/06/13 02:26:28;;;;;;;28.95;10.88;;;;;;;15.35;100.00;94924.00;5084733;28;20044;-66
2022/06/13 02:29:01;;;;;;;25.83;11.32;;;;;;;15.08;100.00;94914.47;5064017;28;20043;-66
2022/06/13 02:32:00;;;;;;;33.78;12.45;;;;;;;15.09;100.00;94926.56;5079969;28;20048;-65
2022/06/13 02:34:37;;;;;;;50.40;10.82;;;;;;;14.89;100.00;94921.19;5079961;28;20031;-65
2022/06/13 02:37:16;;;;;;;70.30;13.82;;;;;;;14.93;100.00;94922.28;5079069;28;20137;-67
2022/06/13 02:40:01;;;;;;;146.95;14.80;;;;;;;14.96;100.00;94934.88;5078955;28;20043;-66
2022/06/13 02:42:37;;;;;;;50.38;12.23;;;;;;;15.04;100.00;94944.88;5085710;28;20056;-66
2022/06/13 02:45:22;;;;;;;59.08;11.75;;;;;;;15.12;100.00;94940.19;5080241;28;20093;-66
2022/06/13 02:48:21;;;;;;;136.73;13.55;;;;;;;15.10;100.00;94948.31;5080402;28;20046;-66
2022/06/13 02:51:08;;;;;;;32.38;12.35;;;;;;;15.13;100.00;94942.56;5060756;28;20075;-66
2022/06/13 02:53:41;;;;;;;115.20;17.00;;;;;;;15.21;100.00;94951.78;5082117;28;20048;-66
2022/06/13 02:56:07;;;;;;;51.03;12.50;;;;;;;15.22;100.00;94948.91;5080950;28;20047;-67
2022/06/13 02:58:47;;;;;;;45.53;10.80;;;;;;;15.13;100.00;94941.78;5082381;28;20629;-64
2022/06/13 03:01:21;;;;;;;73.53;12.52;;;;;;;15.12;100.00;94942.81;5080083;28;20040;-66
2022/06/13 03:04:04;;;;;;;35.40;11.23;;;;;;;15.16;100.00;94951.75;5084094;28;20040;-65
2022/06/13 03:06:53;;;;;;;31.08;10.85;;;;;;;15.17;100.00;94953.34;5065332;28;20109;-65
2022/06/13 03:09:29;;;;;;;27.00;10.52;;;;;;;15.12;100.00;94955.94;5084635;28;20036;-65
2022/06/13 03:12:04;;;;;;;33.03;13.52;;;;;;;15.09;100.00;94958.03;5082350;28;20062;-65
2022/06/13 03:15:11;;;;;;;37.28;13.77;;;;;;;15.10;100.00;94958.81;5085924;28;20068;-65
2022/06/13 03:17:48;;;;;;;30.92;14.05;;;;;;;15.08;100.00;94956.44;5040833;28;20040;-65
2022/06/13 03:20:17;;;;;;;75.22;13.25;;;;;;;15.14;100.00;94943.34;5077670;28;20048;-65
2022/06/13 03:22:57;;;;;;;28.95;11.02;;;;;;;15.14;100.00;94948.59;5086786;28;20047;-65
2022/06/13 03:25:42;;;;;;;44.60;10.63;;;;;;;15.04;100.00;94944.88;5086352;28;20444;-65
2022/06/13 03:28:09;;;;;;;38.40;10.75;;;;;;;15.04;100.00;94952.75;5085983;28;20517;-65
2022/06/13 03:30:42;;;;;;;49.20;11.57;;;;;;;14.98;100.00;94945.91;5085151;28;20044;-66
2022/06/13 03:36:09;;;;;;;20.48;12.02;;;;;;;15.27;100.00;94958.63;5079818;28;20058;-65
2022/06/13 03:38:47;;;;;;;27.48;11.35;;;;;;;15.31;100.00;94957.06;5062444;28;20048;-69
2022/06/13 03:41:19;;;;;;;22.52;11.20;;;;;;;15.31;100.00;94964.94;5080588;28;20146;-69
2022/06/13 03:43:55;;;;;;;27.55;13.55;;;;;;;15.32;100.00;94966.50;5083382;28;20044;-65
2022/06/13 03:46:39;;;;;;;36.85;13.23;;;;;;;15.43;100.00;94973.38;5079858;28;20044;-65
2022/06/13 03:49:16;;;;;;;49.63;13.63;;;;;;;15.51;100.00;94968.69;5076646;28;20125;-66
2022/06/13 03:51:48;;;;;;;31.77;11.48;;;;;;;15.59;100.00;94973.41;5078902;28;20040;-65
2022/06/13 03:54:37;;;;;;;25.60;10.63;;;;;;;15.65;100.00;94969.78;5084579;28;20053;-72
2022/06/13 03:57:14;;;;;;;35.25;10.55;;;;;;;15.61;100.00;94966.06;5079900;28;20055;-71
2022/06/13 04:00:01;;;;;;;34.20;12.48;;;;;;;15.67;100.00;94975.56;5076043;28;20032;-70
2022/06/13 04:02:33;;;;;;;28.52;11.88;;;;;;;15.64;100.00;94973.44;5075973;28;20085;-72
2022/06/13 04:04:59;;;;;;;22.33;10.82;;;;;;;15.60;100.00;94977.63;5075207;28;20047;-71
2022/06/13 04:07:32;;;;;;;18.33;10.27;;;;;;;15.61;100.00;94979.19;5070270;28;20048;-70
2022/06/13 04:10:06;;;;;;;16.77;9.07;;;;;;;15.35;100.00;94971.25;5077317;28;20043;-70
2022/06/13 04:13:07;;;;;;;16.75;9.23;;;;;;;15.15;100.00;94971.19;5076972;28;20051;-71
2022/06/13 04:15:43;;;;;;;16.00;9.52;;;;;;;14.94;100.00;94971.06;5065592;28;20048;-71
2022/06/13 04:18:35;;;;;;;19.88;8.25;;;;;;;14.74;100.00;94976.19;5078548;28;20051;-72
2022/06/13 04:21:42;;;;;;;20.02;9.35;;;;;;;14.82;100.00;94978.34;5079111;28;20040;-71
2022/06/13 04:24:21;;;;;;;21.95;10.00;;;;;;;14.93;100.00;94981.78;5084867;28;20039;-73
2022/06/13 04:27:03;;;;;;;16.55;9.10;;;;;;;15.02;100.00;94978.47;5079599;28;20442;-72
2022/06/13 04:29:39;;;;;;;24.10;9.13;;;;;;;15.13;100.00;94973.28;5081902;28;20040;-72
2022/06/13 04:32:12;;;;;;;21.67;10.35;;;;;;;15.23;100.00;94957.56;5049590;28;20131;-71
2022/06/13 04:34:47;;;;;;;29.92;10.57;;;;;;;15.37;100.00;94973.63;5075799;28;20040;-71
2022/06/13 04:37:15;;;;;;;47.47;8.90;;;;;;;15.36;100.00;94980.72;5077230;28;20692;-72
2022/06/13 04:39:45;;;;;;;38.50;10.55;;;;;;;15.46;100.00;94977.31;5081267;28;20062;-71
2022/06/13 04:42:16;;;;;;;29.38;9.57;;;;;;;15.38;100.00;94965.50;5060496;28;20040;-71
2022/06/13 04:44:46;;;;;;;41.30;8.90;;;;;;;15.53;100.00;94984.97;5065367;28;20048;-71
2022/06/13 04:47:16;;;;;;;19.00;8.23;;;;;;;15.37;100.00;94984.91;5061645;28;20044;-71
2022/06/13 04:49:48;;;;;;;13.35;8.25;;;;;;;15.29;100.00;94972.28;5077883;28;20524;-71
2022/06/13 04:52:19;;;;;;;10.30;7.68;;;;;;;15.40;100.00;94979.13;5092017;28;20060;-71
2022/06/13 04:55:01;;;;;;;11.82;7.97;;;;;;;15.40;100.00;94973.88;5061065;28;20044;-71
2022/06/13 04:57:29;;;;;;;14.02;8.68;;;;;;;15.47;100.00;94974.44;5061622;28;20322;-71
2022/06/13 04:59:59;;;;;;;14.88;8.90;;;;;;;15.42;100.00;94971.78;5043347;28;20037;-71
2022/06/13 05:02:40;;;;;;;14.88;8.68;;;;;;;15.40;100.00;94967.88;5079209;28;20040;-71
2022/06/13 05:05:26;;;;;;;25.48;10.13;;;;;;;15.47;100.00;94974.44;5074140;28;20040;-71
2022/06/13 05:07:53;;;;;;;29.88;9.93;;;;;;;15.54;100.00;94973.41;5062127;28;20043;-72
2022/06/13 05:10:27;;;;;;;29.80;10.32;;;;;;;15.61;100.00;94984.44;5062429;28;20807;-69
2022/06/13 05:12:55;;;;;;;15.23;9.45;;;;;;;15.71;100.00;94979.22;5082739;28;20047;-72
2022/06/13 05:15:33;;;;;;;15.68;10.00;;;;;;;15.85;100.00;94975.09;5064204;28;20043;-72
2022/06/13 05:18:18;;;;;;;13.88;9.05;;;;;;;15.94;100.00;94971.97;5070493;28;20052;-72
2022/06/13 05:21:13;;;;;;;17.30;9.15;;;;;;;16.06;100.00;94975.09;5078379;28;20048;-71
2022/06/13 05:23:53;;;;;;;19.33;10.07;;;;;;;16.21;100.00;94977.75;5065957;28;20040;-71
2022/06/13 05:26:27;;;;;;;12.55;8.75;;;;;;;16.28;100.00;94974.06;5079837;28;20142;-71
2022/06/13 05:28:54;;;;;;;13.77;8.73;;;;;;;16.48;100.00;94976.69;5065599;28;20060;-71
2022/06/13 05:31:20;;;;;;;14.27;8.82;;;;;;;16.61;100.00;94980.63;5062059;28;21328;-72
2022/06/13 05:33:50;;;;;;;12.63;9.07;;;;;;;16.71;100.00;94974.56;5063029;28;20040;-72
2022/06/13 05:36:22;;;;;;;15.15;9.82;;;;;;;16.75;100.00;94975.63;5090055;27;20692;-78
2022/06/13 05:38:53;;;;;;;15.60;8.70;;;;;;;16.70;100.00;94978.25;5069442;28;20044;-75
2022/06/13 05:41:20;;;;;;;11.40;7.93;;;;;;;16.56;100.00;94981.41;5079368;28;20046;-71
2022/06/13 05:43:50;;;;;;;11.93;7.30;;;;;;;16.72;100.00;94982.19;5082852;28;20062;-71
2022/06/13 05:46:25;;;;;;;10.85;6.72;;;;;;;16.84;100.00;94979.31;5080619;28;20040;-71
2022/06/13 05:48:52;;;;;;;10.02;7.22;;;;;;;17.09;100.00;94977.69;5080629;28;20052;-71
2022/06/13 05:51:19;;;;;;;11.68;7.57;;;;;;;17.10;100.00;94981.88;5084833;28;20035;-67
2022/06/13 05:53:46;;;;;;;11.93;7.25;;;;;;;17.29;100.00;94989.97;5083233;28;20040;-78
2022/06/13 05:56:13;;;;;;;12.43;8.10;;;;;;;17.30;100.00;94992.31;5066102;28;20040;-77
2022/06/13 05:58:41;;;;;;;9.73;7.40;;;;;;;17.54;100.00;94997.00;5063991;28;20060;-65
2022/06/13 06:01:13;;;;;;;15.38;7.38;;;;;;;17.53;100.00;94993.56;5083071;28;20055;-66
2022/06/13 06:03:41;;;;;;;10.02;6.68;;;;;;;17.53;100.00;94992.78;5079748;28;20040;-65
2022/06/13 06:06:13;;;;;;;16.85;6.95;;;;;;;17.56;100.00;94989.59;5081228;28;20054;-66
2022/06/13 06:08:40;;;;;;;9.68;7.20;;;;;;;17.36;100.00;94995.75;5080361;28;20468;-65
2022/06/13 06:11:07;;;;;;;11.25;7.35;;;;;;;17.46;100.00;95000.19;5082250;28;20044;-66
2022/06/13 06:13:34;;;;;;;11.93;7.43;;;;;;;17.50;100.00;95003.84;5078113;28;20068;-65
2022/06/13 06:16:02;;;;;;;17.42;7.45;;;;;;;17.78;100.00;94997.91;5081168;28;20044;-65
2022/06/13 06:18:30;;;;;;;12.80;8.23;;;;;;;17.97;100.00;94989.41;5079866;28;20633;-64
2022/06/13 06:20:57;;;;;;;9.52;7.45;;;;;;;18.22;100.00;94998.19;5079337;28;20070;-65
2022/06/13 06:23:25;;;;;;;15.50;7.45;;;;;;;18.41;100.00;95001.75;5082020;28;20633;-64
2022/06/13 06:25:52;;;;;;;10.65;7.85;;;;;;;18.64;100.00;95002.09;5061525;28;20051;-64
2022/06/13 06:28:22;;;;;;;11.20;6.93;;;;;;;18.78;100.00;95002.22;5078639;28;20736;-65
2022/06/13 06:30:52;;;;;;;10.55;6.75;;;;;;;18.95;100.00;95012.41;5061678;28;20052;-64
2022/06/13 06:33:20;;;;;;;9.82;7.10;;;;;;;19.14;100.00;95010.63;5080388;28;20089;-64
2022/06/13 06:35:53;;;;;;;9.27;6.65;;;;;;;19.19;100.00;95009.78;5079886;28;20048;-63
2022/06/13 06:38:22;;;;;;;8.43;6.53;;;;;;;19.15;100.00;95006.91;5065851;28;20582;-63
2022/06/13 06:40:49;;;;;;;10.57;7.18;;;;;;;19.05;100.00;95017.56;5077432;28;20799;-64
2022/06/13 06:43:16;;;;;;;8.02;5.72;;;;;;;19.06;100.00;95003.31;5080941;28;20160;-63
2022/06/13 06:45:43;;;;;;;9.52;6.97;;;;;;;19.01;100.00;95003.34;5077442;28;20052;-64
2022/06/13 06:48:15;;;;;;;11.65;7.63;;;;;;;19.00;100.00;95004.44;5080535;28;20043;-63
2022/06/13 06:50:44;;;;;;;8.93;6.53;;;;;;;19.04;100.00;95000.94;5080179;28;20051;-64
2022/06/13 06:53:12;;;;;;;8.05;6.30;;;;;;;19.16;100.00;94997.94;5080346;28;20068;-64
2022/06/13 07:01:14;;;;;;;8.95;6.55;;;;;;;19.43;100.00;95001.84;5079136;28;20064;-64
2022/06/13 07:03:43;;;;;;;8.80;5.90;;;;;;;19.43;100.00;94993.94;5081369;28;20044;-63
2022/06/13 07:06:12;;;;;;;9.13;6.43;;;;;;;19.73;100.00;94991.97;5074978;28;20432;-63
2022/06/13 07:08:39;;;;;;;12.77;6.22;;;;;;;20.00;100.00;94989.50;5077960;28;20255;-64
2022/06/13 07:13:56;;;;;;;6.70;5.57;;;;;;;20.39;100.00;94991.03;5078609;28;20040;-63
2022/06/13 07:16:23;;;;;;;6.93;4.70;;;;;;;20.47;100.00;94986.16;5078355;28;20054;-63
2022/06/13 07:18:50;;;;;;;5.95;4.40;;;;;;;20.37;100.00;94985.25;5082108;28;20059;-63
2022/06/13 07:21:17;;;;;;;7.95;4.63;;;;;;;20.31;100.00;94982.97;5079633;28;20138;-64
2022/06/13 07:23:44;;;;;;;7.45;4.47;;;;;;;20.38;100.00;94991.31;5080025;28;20057;-75
2022/06/13 07:26:11;;;;;;;11.20;4.82;;;;;;;20.48;100.00;94987.75;5082242;28;20047;-73
2022/06/13 07:28:38;;;;;;;5.75;4.30;;;;;;;20.86;100.00;95003.53;5081339;28;20035;-76
2022/06/13 07:31:06;;;;;;;5.78;4.65;;;;;;;21.15;100.00;95005.94;5081685;28;20067;-77
2022/06/13 07:33:34;;;;;;;5.20;4.30;;;;;;;21.07;100.00;94996.81;5048035;28;20135;-77
2022/06/13 07:36:01;;;;;;;6.40;4.47;;;;;;;21.23;100.00;95001.81;5066717;28;20036;-76
2022/06/13 07:38:28;;;;;;;7.95;4.70;;;;;;;21.25;100.00;94983.75;5063797;28;20135;-73
2022/06/13 07:41:00;;;;;;;6.63;4.80;;;;;;;21.11;100.00;94997.78;5049269;28;20040;-78
2022/06/13 07:43:28;;;;;;;7.50;4.07;;;;;;;21.10;100.00;94998.84;5063680;28;20048;-78
2022/06/13 07:45:58;;;;;;;7.97;5.10;;;;;;;21.33;100.00;95001.63;5080818;28;20099;-77
2022/06/13 07:48:27;;;;;;;7.50;4.43;;;;;;;21.54;100.00;94994.09;5063817;28;20048;-78
2022/06/13 07:50:56;;;;;;;6.80;5.25;;;;;;;21.66;100.00;94993.56;5084497;28;20121;-77
2022/06/13 07:53:23;;;;;;;9.35;4.95;;;;;;;21.87;100.00;94997.34;5067173;28;20135;-77
2022/06/13 07:56:19;;;;;;;7.88;4.72;;;;;;;22.09;100.00;95006.44;5070555;28;20055;-78
2022/06/13 07:58:49;;;;;;;6.45;3.97;;;;;;;22.20;100.00;94997.19;5050425;28;20052;-79
2022/06/13 08:01:18;;;;;;;6.93;4.38;;;;;;;22.13;100.00;95000.25;5080804;28;20040;-77
2022/06/13 08:03:53;;;;;;;5.72;4.22;;;;;;;22.28;100.00;94991.19;5069289;28;20097;-77
2022/06/13 08:06:22;;;;;;;6.22;4.35;;;;;;;22.37;100.00;95001.09;5079095;28;20078;-78
2022/06/13 08:08:51;;;;;;;7.47;4.40;;;;;;;22.45;100.00;94992.38;5086851;28;20506;-77
2022/06/13 08:11:30;;;;;;;11.73;4.85;;;;;;;22.60;100.00;95002.66;5081287;28;20709;-78
2022/06/13 08:13:58;;;;;;;10.35;4.25;;;;;;;22.83;100.00;94997.28;5064861;28;20421;-78
2022/06/13 08:16:25;;;;;;;6.78;4.13;;;;;;;23.22;98.00;95003.75;5082043;28;20075;-78
2022/06/13 08:18:52;;;;;;;5.88;4.18;;;;;;;23.52;97.23;95006.69;5083907;28;20079;-78
2022/06/13 08:21:19;;;;;;;5.13;4.60;;;;;;;23.74;97.16;94998.59;5072265;28;20089;-76
2022/06/13 08:23:46;;;;;;;5.13;4.60;;;;;;;23.97;98.38;95004.59;5091534;28;20433;-77
2022/06/13 08:26:13;;;;;;;7.18;4.22;;;;;;;24.26;97.41;94997.09;5081815;28;20032;-77
2022/06/13 08:28:40;;;;;;;6.95;5.07;;;;;;;24.56;92.75;95006.81;5066480;28;20035;-77
2022/06/13 08:31:15;;;;;;;5.93;4.15;;;;;;;24.59;89.49;95000.84;5081920;28;20055;-77
2022/06/13 08:33:43;;;;;;;5.45;4.30;;;;;;;24.52;91.05;94992.53;5062687;28;20044;-77
2022/06/13 08:36:11;;;;;;;9.85;3.65;;;;;;;24.89;90.50;95002.84;5066917;28;20509;-77
2022/06/13 08:38:39;;;;;;;3.28;2.90;;;;;;;24.95;80.83;95018.31;5063009;28;20072;-78
2022/06/13 08:41:15;;;;;;;7.15;3.67;;;;;;;25.02;74.55;95011.72;5066279;28;20052;-77
2022/06/13 08:44:03;;;;;;;4.63;3.22;;;;;;;25.34;78.01;95018.38;5077030;28;20516;-63
2022/06/13 08:46:39;;;;;;;3.90;3.50;;;;;;;25.64;77.30;95021.84;5081391;28;20131;-63
2022/06/13 08:49:26;;;;;;;4.38;3.20;;;;;;;25.72;74.27;95021.00;5082929;28;20051;-63
2022/06/13 08:52:16;;;;;;;9.25;3.45;;;;;;;25.75;74.25;95015.03;5079506;28;20640;-64
2022/06/13 08:54:49;;;;;;;5.47;3.38;;;;;;;26.16;75.92;95014.63;5072406;28;20534;-63
2022/06/13 08:57:25;;;;;;;4.50;3.10;;;;;;;26.25;75.39;95012.69;5084435;28;20036;-64
2022/06/13 09:00:03;;;;;;;5.10;3.47;;;;;;;26.52;74.03;95001.47;5081042;28;20039;-63
2022/06/13 09:02:43;;;;;;;3.78;3.33;;;;;;;26.89;70.53;95012.28;5085427;28;20048;-64
2022/06/13 09:05:20;;;;;;;3.90;2.97;;;;;;;27.12;63.93;95011.88;5077321;28;20047;-63
2022/06/13 09:07:56;;;;;;;3.97;3.42;;;;;;;27.14;61.45;95009.66;5088280;28;20533;-63
2022/06/13 09:10:26;;;;;;;3.65;3.10;;;;;;;27.17;64.76;95009.00;5084265;28;20433;-63
2022/06/13 09:12:58;;;;;;;4.30;3.33;;;;;;;27.48;62.55;95007.72;5087278;28;20046;-63
2022/06/13 09:15:43;;;;;;;4.77;4.37;;;;;;;27.34;63.38;95009.94;5087265;28;20048;-66
2022/06/13 09:18:31;;;;;;;5.45;3.78;;;;;;;27.57;63.14;95016.41;5103546;28;20143;-66
2022/06/13 09:21:37;;;;;;;4.15;3.75;;;;;;;27.69;57.90;95017.50;5077473;28;20079;-65
2022/06/13 09:24:16;;;;;;;4.35;3.65;;;;;;;27.97;60.99;95022.97;5089785;28;20688;-67
2022/06/13 09:26:49;;;;;;;4.40;3.05;;;;;;;27.70;62.24;95013.72;5088485;28;20043;-68
2022/06/13 09:30:00;;;;;;;6.60;3.57;;;;;;;28.09;59.77;95019.47;5087549;28;20131;-68
2022/06/13 09:32:40;;;;;;;4.85;3.38;;;;;;;28.19;55.79;95008.28;4984915;28;20559;-71
2022/06/13 09:35:15;;;;;;;;;;;;;;;28.34;59.62;95015.63;4984809;28;20038;-69
2022/06/13 09:37:48;;;;;;;8.80;3.65;;;;;;;28.41;58.06;95015.81;5044042;28;20400;-64
2022/06/13 09:40:23;;;;;;;8.93;3.80;;;;;;;28.34;52.65;95010.28;5078528;28;20128;-68
2022/06/13 09:43:10;;;;;;;4.50;3.22;;;;;;;28.15;55.23;95007.41;5080631;28;20047;-66
2022/06/13 09:45:37;;;;;;;6.60;3.80;;;;;;;28.28;54.55;95010.84;5080132;28;20097;-65
2022/06/13 09:48:10;;;;;;;7.55;3.67;;;;;;;28.24;54.96;95010.75;5078843;28;20040;-72
2022/06/13 09:50:48;;;;;;;9.05;3.83;;;;;;;28.13;55.31;95009.66;5085254;28;20047;-65
2022/06/13 09:53:36;;;;;;;5.72;4.03;;;;;;;27.73;55.67;95005.00;5078679;28;20048;-72
2022/06/13 09:56:12;;;;;;;6.28;3.75;;;;;;;27.42;57.11;94998.31;5067250;28;20063;-76
2022/06/13 09:58:40;;;;;;;6.45;3.30;;;;;;;27.11;58.91;94994.28;5066055;28;20100;-74
2022/06/13 10:01:16;;;;;;;8.50;3.92;;;;;;;27.17;57.09;94998.31;5081940;28;20707;-74
2022/06/13 10:04:08;;;;;;;4.75;3.80;;;;;;;27.09;56.00;95001.84;5064355;28;20032;-73
2022/06/13 10:06:40;;;;;;;7.55;3.92;;;;;;;26.72;58.66;94988.41;5082067;28;20046;-67
2022/06/13 10:10:06;;;;;;;9.52;3.55;;;;;;;26.72;58.66;94988.41;5080959;28;20397;-74
2022/06/13 10:12:54;;;;;;;6.75;5.95;;;;;;;26.74;58.86;94986.19;4980759;28;20634;-74
2022/06/13 10:15:41;;;;;;;5.30;4.10;;;;;;;26.80;57.38;94990.22;5065821;28;20090;-74
2022/06/13 10:18:35;;;;;;;7.72;4.88;;;;;;;26.96;56.14;94992.25;5070769;28;20060;-72
2022/06/13 10:21:36;;;;;;;5.07;4.57;;;;;;;27.32;60.74;94991.53;5065400;28;20052;-64
2022/06/13 10:24:14;;;;;;;4.32;3.60;;;;;;;27.52;55.65;94991.78;5070227;28;20042;-65
2022/06/13 10:26:54;;;;;;;5.88;4.13;;;;;;;27.53;55.99;94988.75;5075803;28;20075;-65
2022/06/13 10:30:11;;;;;;;9.70;3.65;;;;;;;27.91;53.77;94997.53;5076255;28;20047;-65
2022/06/13 10:33:15;;;;;;;4.72;4.22;;;;;;;27.64;55.88;94986.38;5006882;28;20167;-65
2022/06/13 10:35:48;;;;;;;4.63;4.13;;;;;;;27.62;54.83;94989.41;5080143;28;20039;-65
2022/06/13 10:38:53;;;;;;;7.85;4.05;;;;;;;27.90;53.28;94987.94;5078799;28;20043;-66
2022/06/13 10:41:24;;;;;;;8.40;4.18;;;;;;;28.03;56.12;94984.91;5077752;28;20044;-66
2022/06/13 10:43:52;;;;;;;6.40;3.95;;;;;;;28.91;54.33;94983.44;5079758;28;20056;-66
2022/06/13 10:46:19;;;;;;;7.80;4.10;;;;;;;29.50;50.14;94981.84;5079133;28;20032;-66
2022/06/13 10:49:04;;;;;;;5.95;4.90;;;;;;;30.12;43.96;94979.34;5083331;28;20121;-66
2022/06/13 10:51:31;;;;;;;6.20;3.97;;;;;;;30.62;45.46;94969.59;5080151;28;20051;-66
2022/06/13 10:54:15;;;;;;;5.55;4.00;;;;;;;31.05;43.12;94964.22;5082536;28;20043;-69
2022/06/13 10:57:05;;;;;;;4.32;3.50;;;;;;;30.78;45.83;94960.66;5077117;28;20107;-67
2022/06/13 10:59:37;;;;;;;5.03;3.67;;;;;;;30.44;45.98;94957.75;5085049;28;20764;-67
2022/06/13 11:02:25;;;;;;;5.65;3.75;;;;;;;29.64;46.56;94965.25;5066582;28;20048;-68
2022/06/13 11:05:08;;;;;;;8.40;4.20;;;;;;;29.76;48.50;94950.97;5081409;28;20047;-68
2022/06/13 11:07:45;;;;;;;5.05;3.80;;;;;;;29.80;48.57;94955.31;5077909;28;20047;-68
2022/06/13 11:10:18;;;;;;;5.32;3.72;;;;;;;29.87;47.90;94947.41;5078685;28;20047;-66
2022/06/13 11:12:50;;;;;;;4.72;4.25;;;;;;;30.36;48.06;94939.94;5075470;28;20036;-68
2022/06/13 11:24:01;;;;;;;9.20;4.25;;;;;;;31.44;43.28;94921.78;5090031;28;20055;-75
2022/06/13 11:29:23;;;;;;;5.00;4.13;;;;;;;31.80;39.46;94922.31;5082960;28;20043;-71
2022/06/13 11:31:59;;;;;;;9.65;4.28;;;;;;;31.86;39.46;94913.91;5080515;28;20071;-71
2022/06/13 11:34:34;;;;;;;5.63;4.38;;;;;;;32.22;41.77;94908.97;5074647;28;20155;-71
2022/06/13 11:37:13;;;;;;;10.20;5.35;;;;;;;33.04;39.67;94919.75;5064039;28;20063;-72
2022/06/13 11:39:46;;;;;;;7.38;4.15;;;;;;;33.39;40.59;94913.13;5083347;28;20031;-72
2022/06/13 11:42:22;;;;;;;8.05;3.90;;;;;;;33.67;39.32;94918.72;5070306;28;20067;-71
2022/06/13 11:45:23;;;;;;;5.13;3.92;;;;;;;33.59;35.35;94916.31;5077973;28;20661;-71
2022/06/13 11:47:52;;;;;;;10.48;3.97;;;;;;;33.50;34.66;94913.94;5080349;28;20091;-72
2022/06/13 11:50:19;;;;;;;7.20;5.13;;;;;;;33.61;35.02;94914.78;5064380;28;20712;-71
2022/06/13 11:55:56;;;;;;;4.18;3.75;;;;;;;34.60;32.74;94904.00;5082230;28;20539;-72
2022/06/13 11:58:32;;;;;;;5.57;3.65;;;;;;;34.99;33.57;94895.16;5099849;27;20047;-71
2022/06/13 12:01:19;;;;;;;9.07;4.30;;;;;;;35.42;30.54;94900.56;5078945;28;20040;-71
2022/06/13 12:04:11;;;;;;;4.72;4.20;;;;;;;35.73;29.71;94892.78;5100380;27;20052;-83
2022/06/13 12:06:48;;;;;;;4.78;3.70;;;;;;;35.74;29.40;94899.72;5084030;28;20040;-66
2022/06/13 12:09:31;;;;;;;5.53;3.80;;;;;;;36.01;30.83;94891.09;5079174;28;20047;-67
2022/06/13 12:12:07;;;;;;;5.72;4.05;;;;;;;36.00;27.15;94901.19;5075644;28;20051;-67
2022/06/13 12:14:42;;;;;;;6.28;5.30;;;;;;;36.15;25.57;94885.63;5082456;28;20048;-80
2022/06/13 12:17:20;;;;;;;7.30;4.45;;;;;;;36.18;29.56;94890.25;5068318;28;20048;-78
2022/06/13 12:19:53;;;;;;;7.15;3.45;;;;;;;36.30;29.21;94887.13;5080875;28;20036;-81
2022/06/13 12:22:42;;;;;;;6.57;4.03;;;;;;;36.78;26.29;94893.03;5049695;28;20055;-80
2022/06/13 12:25:14;;;;;;;4.60;4.10;;;;;;;36.80;26.34;94885.28;5071438;28;20043;-79
2022/06/13 12:27:53;;;;;;;5.22;4.38;;;;;;;36.90;27.08;94889.84;5069689;28;20075;-78
2022/06/13 12:30:20;;;;;;;7.32;4.47;;;;;;;37.01;27.26;94887.81;5069713;28;20051;-76